createdAt,value
2023-03-22T00:01:15.153Z,0.98
2023-03-22T00:05:15.094Z,0.98
2023-03-22T00:09:15.061Z,0.99
2023-03-22T00:13:15.040Z,0.99
2023-03-22T00:17:14.959Z,0.99
2023-03-22T00:21:14.917Z,1.06
2023-03-22T00:25:14.894Z,0.99
2023-03-22T00:29:14.886Z,0.99
2023-03-22T00:33:14.839Z,1.01
2023-03-22T00:37:14.801Z,1.00
2023-03-22T00:41:14.768Z,1.01
2023-03-22T00:45:14.716Z,1.00
2023-03-22T00:49:14.685Z,0.99
2023-03-22T00:53:14.653Z,1.03
2023-03-22T00:57:14.579Z,1.00
2023-03-22T01:01:15.005Z,1.02
2023-03-22T01:05:14.495Z,1.00
2023-03-22T01:09:14.499Z,1.00
2023-03-22T01:13:16.388Z,1.01
2023-03-22T01:17:14.442Z,1.00
2023-03-22T01:21:14.407Z,1.03
2023-03-22T01:25:14.351Z,1.03
2023-03-22T01:29:14.323Z,1.01
2023-03-22T01:33:14.292Z,0.98
2023-03-22T01:37:14.222Z,1.01
2023-03-22T01:41:14.197Z,1.01
2023-03-22T01:45:14.141Z,0.99
2023-03-22T01:49:14.171Z,0.97
2023-03-22T01:53:14.106Z,1.02
2023-03-22T01:57:14.066Z,1.00
2023-03-22T02:01:14.034Z,0.98
2023-03-22T02:05:13.992Z,0.99
2023-03-22T02:09:13.938Z,1.02
2023-03-22T02:13:13.903Z,0.97
2023-03-22T02:17:13.888Z,1.02
2023-03-22T02:21:13.838Z,1.01
2023-03-22T02:25:13.774Z,1.00
2023-03-22T02:29:13.748Z,1.01
2023-03-22T02:33:13.699Z,1.02
2023-03-22T02:37:13.658Z,0.99
2023-03-22T02:41:13.633Z,0.98
2023-03-22T02:45:13.568Z,0.99
2023-03-22T02:49:13.570Z,1.02
2023-03-22T02:53:13.511Z,0.97
2023-03-22T02:57:13.480Z,0.98
2023-03-22T03:01:13.542Z,0.99
2023-03-22T03:05:13.433Z,0.98
2023-03-22T03:09:13.467Z,1.01
2023-03-22T03:13:13.495Z,0.98
2023-03-22T03:17:13.593Z,0.98
2023-03-22T03:21:13.644Z,0.97
2023-03-22T03:25:13.709Z,0.97
2023-03-22T03:29:13.730Z,0.98
2023-03-22T03:33:13.842Z,0.99
2023-03-22T03:37:13.912Z,0.97
2023-03-22T03:41:13.919Z,0.97
2023-03-22T03:45:14.014Z,0.97
2023-03-22T03:49:14.219Z,0.99
2023-03-22T03:53:14.178Z,0.96
2023-03-22T03:57:14.314Z,0.98
2023-03-22T04:01:14.344Z,0.99
2023-03-22T04:05:14.437Z,0.96
2023-03-22T04:09:14.453Z,0.99
2023-03-22T04:13:14.594Z,0.97
2023-03-22T04:17:14.644Z,1.01
2023-03-22T04:21:14.697Z,0.99
2023-03-22T04:25:14.890Z,0.96
2023-03-22T04:29:14.903Z,0.97
2023-03-22T04:33:14.943Z,0.98
2023-03-22T04:37:15.078Z,1.00
2023-03-22T04:41:15.176Z,0.99
2023-03-22T04:45:15.273Z,0.98
2023-03-22T04:49:15.371Z,0.99
2023-03-22T04:53:15.449Z,1.02
2023-03-22T04:57:15.601Z,0.97
2023-03-22T05:01:15.722Z,0.97
2023-03-22T05:05:15.746Z,0.92
2023-03-22T05:09:15.843Z,0.81
2023-03-22T05:13:15.916Z,0.78
2023-03-22T05:17:15.969Z,0.76
2023-03-22T05:21:16.081Z,0.71
2023-03-22T05:25:16.098Z,0.67
2023-03-22T05:29:16.179Z,0.65
2023-03-22T05:33:16.242Z,0.68
2023-03-22T05:37:16.337Z,0.69
2023-03-22T05:41:16.476Z,0.70
2023-03-22T05:45:16.558Z,0.73
2023-03-22T05:49:16.593Z,0.72
2023-03-22T05:53:16.661Z,0.72
2023-03-22T05:57:16.771Z,0.78
2023-03-22T06:01:16.886Z,0.77
2023-03-22T06:05:16.900Z,0.79
2023-03-22T06:09:18.084Z,0.74
2023-03-22T06:13:17.026Z,0.74
2023-03-22T06:17:17.031Z,0.73
2023-03-22T06:21:17.048Z,0.69
2023-03-22T06:25:17.042Z,0.64
2023-03-22T06:29:17.009Z,0.61
2023-03-22T06:33:17.052Z,0.60
2023-03-22T06:37:17.157Z,0.66
2023-03-22T06:41:17.232Z,0.75
2023-03-22T06:45:17.262Z,0.73
2023-03-22T06:49:17.463Z,0.73
2023-03-22T06:53:17.257Z,0.73
2023-03-22T06:57:17.291Z,0.74
2023-03-22T07:01:17.535Z,0.72
2023-03-22T07:05:17.411Z,0.74
2023-03-22T07:09:17.385Z,0.75
2023-03-22T07:13:17.373Z,0.71
2023-03-22T07:17:20.089Z,0.72
2023-03-22T07:21:17.321Z,0.74
2023-03-22T07:25:17.228Z,0.77
2023-03-22T07:29:17.204Z,0.76
2023-03-22T07:33:17.189Z,0.80
2023-03-22T07:37:17.125Z,0.84
2023-03-22T07:41:17.159Z,0.88
2023-03-22T07:45:17.168Z,0.95
2023-03-22T07:49:17.058Z,0.92
2023-03-22T07:53:17.057Z,0.96
2023-03-22T07:57:17.012Z,0.92
2023-03-22T08:01:17.135Z,0.95
2023-03-22T08:05:17.256Z,1.04
2023-03-22T08:09:17.307Z,0.95
2023-03-22T08:13:17.531Z,0.97
2023-03-22T08:17:17.668Z,0.93
2023-03-22T08:21:17.679Z,0.96
2023-03-22T08:25:17.818Z,0.93
2023-03-22T08:29:22.427Z,1.01
2023-03-22T08:33:18.154Z,0.96
2023-03-22T08:37:17.876Z,1.03
2023-03-22T08:41:17.802Z,0.99
2023-03-22T08:45:17.926Z,0.91
2023-03-22T08:49:17.740Z,0.85
2023-03-22T08:53:17.775Z,0.81
2023-03-22T08:57:17.841Z,0.78
2023-03-22T09:01:17.951Z,0.76
2023-03-22T09:05:18.270Z,0.72
2023-03-22T09:09:18.091Z,0.76
2023-03-22T09:13:18.732Z,1.03
2023-03-22T09:17:21.413Z,0.76
2023-03-22T09:21:19.028Z,0.69
2023-03-22T09:25:18.204Z,0.63
2023-03-22T09:29:18.274Z,0.58
2023-03-22T09:33:18.138Z,0.53
2023-03-22T09:37:18.115Z,0.51
2023-03-22T09:41:18.088Z,0.52
2023-03-22T09:45:18.347Z,0.51
2023-03-22T09:49:18.869Z,0.69
2023-03-22T09:53:18.234Z,0.81
2023-03-22T09:57:18.295Z,0.90
2023-03-22T10:01:20.864Z,1.08
2023-03-22T10:05:18.382Z,0.97
2023-03-22T10:09:18.285Z,0.67
2023-03-22T10:13:18.262Z,0.63
2023-03-22T10:17:18.264Z,0.47
2023-03-22T10:21:18.163Z,0.50
2023-03-22T10:25:18.267Z,0.51
2023-03-22T10:29:18.165Z,0.71
2023-03-22T10:33:18.093Z,0.50
2023-03-22T10:37:18.064Z,0.59
2023-03-22T10:41:18.013Z,0.55
2023-03-22T10:45:17.992Z,0.74
2023-03-22T10:49:17.948Z,0.78
2023-03-22T10:53:17.899Z,0.77
2023-03-22T10:57:17.886Z,0.66
2023-03-22T11:01:18.023Z,0.91
2023-03-22T11:05:17.787Z,1.09
2023-03-22T11:09:17.831Z,1.23
2023-03-22T11:13:18.231Z,1.25
2023-03-22T11:17:18.572Z,1.24
2023-03-22T11:21:17.721Z,1.29
2023-03-22T11:25:17.684Z,1.12
2023-03-22T11:29:18.587Z,1.41
2023-03-22T11:33:17.619Z,1.19
2023-03-22T11:37:18.310Z,1.17
2023-03-22T11:41:17.880Z,0.87
2023-03-22T11:45:17.461Z,0.67
2023-03-22T11:49:17.362Z,0.61
2023-03-22T11:53:17.360Z,0.75
2023-03-22T11:57:17.487Z,0.76
2023-03-22T12:01:17.305Z,0.87
2023-03-22T12:05:17.362Z,0.97
2023-03-22T12:09:17.194Z,0.77
2023-03-22T12:13:17.136Z,1.48
2023-03-22T12:17:17.187Z,1.70
2023-03-22T12:21:17.147Z,2.56
2023-03-22T12:25:17.512Z,2.42
2023-03-22T12:29:17.058Z,1.79
2023-03-22T12:33:17.277Z,1.15
2023-03-22T12:37:17.285Z,0.50
2023-03-22T12:41:17.286Z,0.52
2023-03-22T12:45:17.234Z,0.46
2023-03-22T12:49:17.183Z,0.52
2023-03-22T12:53:17.159Z,0.42
2023-03-22T12:57:17.115Z,0.70
2023-03-22T13:01:17.156Z,1.27
2023-03-22T13:05:16.985Z,0.91
2023-03-22T13:09:17.006Z,1.08
2023-03-22T13:13:17.009Z,4.28
2023-03-22T13:17:17.075Z,4.49
2023-03-22T13:21:17.034Z,3.49
2023-03-22T13:25:17.188Z,3.01
2023-03-22T13:29:17.003Z,2.56
2023-03-22T13:33:16.985Z,2.01
2023-03-22T13:37:16.864Z,1.61
2023-03-22T13:41:16.867Z,1.26
2023-03-22T13:45:16.880Z,0.93
2023-03-22T13:49:16.783Z,0.66
2023-03-22T13:53:16.731Z,0.55
2023-03-22T13:57:16.716Z,0.59
2023-03-22T14:01:16.772Z,1.00
2023-03-22T14:05:16.743Z,4.92
2023-03-22T14:09:16.638Z,8.92
2023-03-22T14:13:16.602Z,10.58
2023-03-22T14:17:16.564Z,7.06
2023-03-22T14:21:16.520Z,6.79
2023-03-22T14:46:11.197Z,0.50
2023-03-22T14:50:10.879Z,0.84
2023-03-22T14:54:10.877Z,0.80
2023-03-22T14:58:11.144Z,0.34
2023-03-22T15:02:10.865Z,0.34
2023-03-22T15:06:10.928Z,0.50
2023-03-22T15:10:10.953Z,0.51
2023-03-22T15:14:11.091Z,0.51
2023-03-22T15:18:11.679Z,0.50
2023-03-22T15:22:11.238Z,0.53
2023-03-22T15:26:11.372Z,0.59
2023-03-22T15:30:11.401Z,0.59
2023-03-22T15:34:11.290Z,0.67
2023-03-22T15:38:11.355Z,1.02
2023-03-22T15:42:11.214Z,1.69
2023-03-22T15:46:11.309Z,5.11
2023-03-22T15:50:11.190Z,8.92
2023-03-22T15:54:11.238Z,11.50
2023-03-22T15:58:11.241Z,9.29
2023-03-22T16:02:11.212Z,8.28
2023-03-22T16:06:11.204Z,7.94
2023-03-22T16:10:11.220Z,12.92
2023-03-22T16:14:11.236Z,15.36
2023-03-22T16:18:11.210Z,16.58
2023-03-22T16:22:11.708Z,19.66
2023-03-22T16:26:11.166Z,17.78
2023-03-22T16:30:11.171Z,8.70
2023-03-22T16:34:11.182Z,5.63
2023-03-22T16:38:11.550Z,5.41
2023-03-22T16:42:11.229Z,6.92
2023-03-22T16:46:11.248Z,9.81
2023-03-22T16:50:11.170Z,10.06
2023-03-22T16:54:11.159Z,11.71
2023-03-22T16:58:11.182Z,9.57
2023-03-22T17:02:11.165Z,9.69
2023-03-22T17:06:11.143Z,11.48
2023-03-22T17:10:11.152Z,11.69
2023-03-22T17:14:11.172Z,11.77
2023-03-22T17:18:11.214Z,12.71
2023-03-22T17:22:11.256Z,12.31
2023-03-22T17:26:11.327Z,9.66
2023-03-22T17:30:11.368Z,8.58
2023-03-22T17:34:11.506Z,9.32
2023-03-22T17:38:11.714Z,9.86
2023-03-22T17:42:11.599Z,12.11
2023-03-22T17:46:57.324Z,14.39
2023-03-22T17:50:12.662Z,15.25
2023-03-22T17:54:51.816Z,18.21
2023-03-22T17:58:31.172Z,20.29
2023-03-22T18:02:16.271Z,21.20
2023-03-22T18:06:12.508Z,22.55
2023-03-22T18:10:11.439Z,28.28
2023-03-22T18:14:24.967Z,34.50
2023-03-22T18:18:12.449Z,34.58
2023-03-22T18:22:11.311Z,38.82
2023-03-22T18:26:27.177Z,37.67
2023-03-22T18:30:12.316Z,37.62
2023-03-22T18:34:11.306Z,36.45
2023-03-22T18:38:11.304Z,28.22
2023-03-22T18:42:19.504Z,27.57
2023-03-22T18:46:19.008Z,26.78
2023-03-22T18:50:12.152Z,28.23
2023-03-22T18:54:11.104Z,26.07
2023-03-22T18:58:11.066Z,26.65
2023-03-22T19:02:15.960Z,41.08
2023-03-22T19:06:11.949Z,219.55
2023-03-22T19:10:10.934Z,126.83
2023-03-22T19:14:58.247Z,60.71
2023-03-22T19:18:11.890Z,40.96
2023-03-22T19:22:10.830Z,60.12
2023-03-22T19:26:10.806Z,121.57
2023-03-22T19:30:10.893Z,110.23
2023-03-22T19:34:11.071Z,72.87
2023-03-22T19:38:11.246Z,81.92
2023-03-22T19:42:12.136Z,40.28
2023-03-22T19:46:11.525Z,42.68
2023-03-22T19:50:11.740Z,41.89
2023-03-22T19:54:27.905Z,38.15
2023-03-22T19:58:12.819Z,29.90
2023-03-22T20:02:11.778Z,34.39
2023-03-22T20:06:11.796Z,34.43
2023-03-22T20:10:11.952Z,32.94
2023-03-22T20:14:12.167Z,33.54
2023-03-22T20:18:12.399Z,31.19
2023-03-22T20:22:12.563Z,30.99
2023-03-22T20:26:12.788Z,32.10
2023-03-22T20:30:12.988Z,31.79
2023-03-22T20:34:13.014Z,29.01
2023-03-22T20:38:12.944Z,28.22
2023-03-22T20:42:12.913Z,27.77
2023-03-22T20:46:12.840Z,27.35
2023-03-22T20:50:12.846Z,25.86
2023-03-22T20:54:12.785Z,26.11
2023-03-22T20:58:12.715Z,25.72
2023-03-22T21:02:12.695Z,25.65
2023-03-22T21:06:12.652Z,24.18
2023-03-22T21:10:12.638Z,24.43
2023-03-22T21:14:12.784Z,23.58
2023-03-22T21:18:12.746Z,22.92
2023-03-22T21:22:12.746Z,22.81
2023-03-22T21:26:12.691Z,21.98
2023-03-22T21:30:12.643Z,21.48
2023-03-22T21:34:12.637Z,20.72
2023-03-22T21:38:12.571Z,20.36
2023-03-22T21:42:12.567Z,20.03
2023-03-22T21:46:12.540Z,19.41
2023-03-22T21:50:12.458Z,18.92
2023-03-22T21:54:12.556Z,18.56
2023-03-22T21:58:12.607Z,17.62
2023-03-22T22:02:12.503Z,17.54
2023-03-22T22:06:12.460Z,16.91
2023-03-22T22:10:12.461Z,16.42
2023-03-22T22:14:12.396Z,16.27
2023-03-22T22:18:12.341Z,15.86
2023-03-22T22:22:12.332Z,15.34
2023-03-22T22:26:12.300Z,15.10
2023-03-22T22:30:12.400Z,14.55
2023-03-22T22:34:12.788Z,14.44
2023-03-22T22:38:12.340Z,14.26
2023-03-22T22:42:12.260Z,13.63
2023-03-22T22:46:12.228Z,13.40
2023-03-22T22:50:12.214Z,13.33
2023-03-22T22:54:12.184Z,13.23
2023-03-22T22:58:12.099Z,12.64
2023-03-22T23:02:12.122Z,12.60
2023-03-22T23:06:12.122Z,12.16
2023-03-22T23:10:12.088Z,11.75
2023-03-22T23:14:12.075Z,11.79
2023-03-22T23:18:11.994Z,11.78
2023-03-22T23:22:11.964Z,11.35
2023-03-22T23:26:11.960Z,11.18
2023-03-22T23:30:11.889Z,10.99
2023-03-22T23:34:11.842Z,10.62
2023-03-22T23:38:11.952Z,10.66
2023-03-22T23:42:11.782Z,10.02
2023-03-22T23:46:11.899Z,9.81
2023-03-22T23:50:12.068Z,9.88
2023-03-22T23:54:12.260Z,9.86
2023-03-22T23:58:12.379Z,9.73
